sensor_id;sensor_type;location;lat;lon;timestamp;P1;durP1;ratioP1;P2;durP2;ratioP2
39782;SDS011;25462;51.164;17.100;2023-07-30T00:15:53;6.20;;;3.10;;
39782;SDS011;25462;51.164;17.100;2023-07-30T06:53:40;6.60;;;3.30;;
39782;SDS011;25462;51.164;17.100;2023-07-30T09:56:28;3.20;;;1.80;;
39782;SDS011;25462;51.164;17.100;2023-07-30T10:07:36;5.60;;;2.10;;
39782;SDS011;25462;51.164;17.100;2023-07-30T10:13:35;3.30;;;1.90;;
39782;SDS011;25462;51.164;17.100;2023-07-30T10:19:26;2.80;;;2.00;;
39782;SDS011;25462;51.164;17.100;2023-07-30T10:43:42;2.80;;;1.80;;
39782;SDS011;25462;51.164;17.100;2023-07-30T11:46:56;2.10;;;1.60;;
39782;SDS011;25462;51.164;17.100;2023-07-30T11:59:17;2.80;;;1.90;;
39782;SDS011;25462;51.164;17.100;2023-07-30T12:24:36;3.10;;;1.80;;
39782;SDS011;25462;51.164;17.100;2023-07-30T12:31:17;4.30;;;1.90;;
39782;SDS011;25462;51.164;17.100;2023-07-30T12:43:48;3.40;;;1.90;;
39782;SDS011;25462;51.164;17.100;2023-07-30T13:58:16;3.30;;;1.50;;
39782;SDS011;25462;51.164;17.100;2023-07-30T14:04:01;2.80;;;2.00;;
39782;SDS011;25462;51.164;17.100;2023-07-30T14:09:44;2.60;;;2.00;;
39782;SDS011;25462;51.164;17.100;2023-07-30T14:26:15;3.10;;;1.80;;
39782;SDS011;25462;51.164;17.100;2023-07-30T14:31:28;2.60;;;1.70;;
39782;SDS011;25462;51.164;17.100;2023-07-30T14:36:37;3.40;;;2.00;;
39782;SDS011;25462;51.164;17.100;2023-07-30T14:41:48;6.80;;;2.00;;
39782;SDS011;25462;51.164;17.100;2023-07-30T14:46:56;2.50;;;1.80;;
39782;SDS011;25462;51.164;17.100;2023-07-30T15:09:32;2.70;;;1.80;;
39782;SDS011;25462;51.164;17.100;2023-07-30T15:14:59;2.90;;;1.60;;
39782;SDS011;25462;51.164;17.100;2023-07-30T15:21:07;3.80;;;1.60;;
39782;SDS011;25462;51.164;17.100;2023-07-30T17:35:38;3.20;;;2.10;;
39782;SDS011;25462;51.164;17.100;2023-07-30T20:20:30;4.60;;;2.10;;
39782;SDS011;25462;51.164;17.100;2023-07-30T21:16:14;4.70;;;1.90;;
39782;SDS011;25462;51.164;17.100;2023-07-30T21:21:19;4.60;;;1.50;;
39782;SDS011;25462;51.164;17.100;2023-07-30T21:26:23;3.20;;;1.60;;
39782;SDS011;25462;51.164;17.100;2023-07-30T21:31:27;2.60;;;1.50;;
39782;SDS011;25462;51.164;17.100;2023-07-30T21:36:31;2.40;;;1.50;;
39782;SDS011;25462;51.164;17.100;2023-07-30T21:41:44;2.70;;;1.50;;
39782;SDS011;25462;51.164;17.100;2023-07-30T21:46:49;3.50;;;1.40;;
39782;SDS011;25462;51.164;17.100;2023-07-30T21:51:54;4.90;;;1.60;;
39782;SDS011;25462;51.164;17.100;2023-07-30T21:56:59;4.10;;;1.50;;
39782;SDS011;25462;51.164;17.100;2023-07-30T22:02:04;4.30;;;1.50;;
39782;SDS011;25462;51.164;17.100;2023-07-30T22:07:09;2.90;;;1.70;;
39782;SDS011;25462;51.164;17.100;2023-07-30T22:12:13;2.90;;;1.40;;
39782;SDS011;25462;51.164;17.100;2023-07-30T22:17:18;5.00;;;1.90;;
39782;SDS011;25462;51.164;17.100;2023-07-30T22:22:25;3.40;;;1.60;;
39782;SDS011;25462;51.164;17.100;2023-07-30T22:27:29;14.50;;;2.10;;
39782;SDS011;25462;51.164;17.100;2023-07-30T22:32:33;4.00;;;1.70;;
39782;SDS011;25462;51.164;17.100;2023-07-30T22:37:39;6.60;;;2.30;;
39782;SDS011;25462;51.164;17.100;2023-07-30T22:42:43;6.50;;;1.80;;
39782;SDS011;25462;51.164;17.100;2023-07-30T22:47:48;4.70;;;1.80;;
39782;SDS011;25462;51.164;17.100;2023-07-30T22:52:52;6.40;;;2.20;;
39782;SDS011;25462;51.164;17.100;2023-07-30T22:57:56;7.00;;;2.20;;
39782;SDS011;25462;51.164;17.100;2023-07-30T23:03:00;5.00;;;2.10;;
39782;SDS011;25462;51.164;17.100;2023-07-30T23:08:04;5.30;;;2.30;;
39782;SDS011;25462;51.164;17.100;2023-07-30T23:13:08;3.80;;;1.90;;
39782;SDS011;25462;51.164;17.100;2023-07-30T23:18:13;5.10;;;2.00;;
39782;SDS011;25462;51.164;17.100;2023-07-30T23:23:17;5.00;;;2.10;;
39782;SDS011;25462;51.164;17.100;2023-07-30T23:28:21;5.80;;;2.00;;
39782;SDS011;25462;51.164;17.100;2023-07-30T23:33:25;4.80;;;2.20;;
39782;SDS011;25462;51.164;17.100;2023-07-30T23:38:29;4.90;;;2.30;;
39782;SDS011;25462;51.164;17.100;2023-07-30T23:43:35;6.40;;;2.20;;
39782;SDS011;25462;51.164;17.100;2023-07-30T23:48:39;3.80;;;2.20;;
39782;SDS011;25462;51.164;17.100;2023-07-30T23:53:45;4.30;;;2.40;;
39782;SDS011;25462;51.164;17.100;2023-07-30T23:58:50;6.30;;;2.50;;
